Time;durP1;ratioP1;P1;durP2;ratioP2;P2;SDS_P1;SDS_P2;PMS_P1;PMS_P2;Temp;Humidity;BMP_temperature;BMP_pressure;BME280_temperature;BME280_humidity;BME280_pressure;Samples;Min_cycle;Max_cycle;Signal;HPM_P1;HPM_P2
2023/06/03 00:02:00;;;;;;;;;;;;;;;26.00;24.65;98535.63;5094684;28;19927;-84
2023/06/03 00:04:29;;;;;;;;;;;;;;;26.15;24.69;98536.13;5090834;28;19946;-84
2023/06/03 00:06:58;;;;;;;;;;;;;;;26.07;24.34;98535.44;5095365;28;20350;-84
2023/06/03 00:09:25;;;;;;;;;;;;;;;25.90;25.18;98541.50;5112274;28;19988;-84
2023/06/03 00:11:51;;;;;;;;;;;;;;;25.64;24.84;98539.63;5089685;28;20379;-84
2023/06/03 00:14:17;;;;;;;;;;;;;;;25.68;24.97;98534.72;5106537;28;19924;-84
2023/06/03 00:16:45;;;;;;;;;;;;;;;25.42;25.28;98531.59;5114029;28;19934;-84
2023/06/03 00:19:14;;;;;;;;;;;;;;;25.72;25.03;98530.59;5103772;28;19928;-83
2023/06/03 00:21:49;;;;;;;;;;;;;;;25.91;24.59;98543.06;5092971;28;19920;-83
2023/06/03 00:24:20;;;;;;;;;;;;;;;25.80;24.62;98536.88;5093433;28;19916;-83
2023/06/03 00:26:46;;;;;;;;;;;;;;;25.75;25.01;98540.19;5092975;28;20325;-84
2023/06/03 00:29:12;;;;;;;;;;;;;;;25.59;24.59;98538.13;5089673;28;20371;-83
2023/06/03 00:31:38;;;;;;;;;;;;;;;25.55;24.63;98533.81;5090203;28;20311;-83
2023/06/03 00:34:04;;;;;;;;;;;;;;;25.56;24.58;98538.19;5093421;28;19924;-83
2023/06/03 00:36:30;;;;;;;;;;;;;;;25.73;25.05;98542.66;5093365;28;19916;-83
2023/06/03 00:38:56;;;;;;;;;;;;;;;25.83;24.90;98548.06;5095299;28;19920;-83
2023/06/03 00:41:22;;;;;;;;;;;;;;;25.92;24.50;98547.47;5094085;28;20402;-83
2023/06/03 00:43:49;;;;;;;;;;;;;;;25.95;24.28;98546.59;5103025;28;20027;-84
2023/06/03 00:46:17;;;;;;;;;;;;;;;25.94;24.60;98548.63;5099162;28;19924;-84
2023/06/03 00:48:43;;;;;;;;;;;;;;;25.99;24.22;98552.94;5078291;28;19927;-84
2023/06/03 00:51:09;;;;;;;;;;;;;;;25.86;24.57;98552.00;5098322;28;20428;-83
2023/06/03 00:53:35;;;;;;;;;;;;;;;25.46;25.05;98558.91;5096589;28;19973;-84
2023/06/03 00:56:01;;;;;;;;;;;;;;;25.34;25.55;98558.25;5115828;28;20359;-84
2023/06/03 00:58:28;;;;;;;;;;;;;;;25.29;25.72;98558.78;5085772;28;19951;-83
2023/06/03 01:00:55;;;;;;;;;;;;;;;25.29;25.43;98558.78;5098452;28;19917;-84
2023/06/03 01:03:21;;;;;;;;;;;;;;;25.51;25.03;98561.97;5095022;28;19921;-84
2023/06/03 01:06:07;;;;;;;;;;;;;;;25.54;25.32;98565.94;5096675;28;20003;-84
2023/06/03 01:08:43;;;;;;;;;;;;;;;25.72;24.64;98557.97;5082329;28;19927;-84
2023/06/03 01:11:13;;;;;;;;;;;;;;;25.46;24.80;98556.88;5096726;28;19916;-83
2023/06/03 01:13:49;;;;;;;;;;;;;;;25.79;24.37;98558.59;5104300;28;20497;-84
2023/06/03 01:16:16;;;;;;;;;;;;;;;25.96;23.77;98553.81;5097435;28;19928;-83
2023/06/03 01:18:43;;;;;;;;;;;;;;;26.04;23.82;98549.63;5100062;28;20003;-83
2023/06/03 01:21:12;;;;;;;;;;;;;;;25.98;23.54;98554.16;5088993;28;19999;-84
2023/06/03 01:23:43;;;;;;;;;;;;;;;26.03;23.52;98550.84;5079986;28;20380;-84
2023/06/03 01:26:11;;;;;;;;;;;;;;;26.01;23.78;98547.66;5108444;28;19966;-83
2023/06/03 01:28:37;;;;;;;;;;;;;;;26.05;23.25;98552.00;5098742;28;20294;-84
2023/06/03 01:31:04;;;;;;;;;;;;;;;26.21;23.50;98556.88;5098141;28;19916;-84
2023/06/03 01:33:31;;;;;;;;;;;;;;;26.07;23.54;98557.97;5098624;28;19927;-83
2023/06/03 01:35:58;;;;;;;;;;;;;;;25.85;23.59;98562.50;5098762;28;19919;-83
2023/06/03 01:38:25;;;;;;;;;;;;;;;25.94;23.52;98565.50;5084201;28;19928;-84
2023/06/03 01:40:51;;;;;;;;;;;;;;;25.71;23.89;98559.97;5099452;28;19920;-83
2023/06/03 01:43:18;;;;;;;;;;;;;;;25.38;24.18;98564.63;5075224;28;19924;-83
2023/06/03 01:45:44;;;;;;;;;;;;;;;25.59;24.12;98565.44;5100237;28;19920;-83
2023/06/03 01:48:10;;;;;;;;;;;;;;;25.63;24.18;98564.16;5096438;28;19998;-84
2023/06/03 01:50:40;;;;;;;;;;;;;;;25.33;24.02;98565.13;5093367;28;20088;-84
2023/06/03 01:53:06;;;;;;;;;;;;;;;25.48;23.89;98562.88;5090427;28;19927;-84
2023/06/03 01:55:32;;;;;;;;;;;;;;;25.68;24.07;98565.66;5092446;28;19997;-84
2023/06/03 01:57:58;;;;;;;;;;;;;;;25.82;23.98;98557.72;5098686;28;20006;-84
2023/06/03 02:00:24;;;;;;;;;;;;;;;25.71;23.98;98559.97;5093722;28;19924;-84
2023/06/03 02:02:50;;;;;;;;;;;;;;;25.78;23.75;98565.47;5084376;28;20449;-84
2023/06/03 02:05:16;;;;;;;;;;;;;;;25.50;24.86;98577.28;5093793;28;20011;-84
2023/06/03 02:07:42;;;;;;;;;;;;;;;25.26;24.58;98582.13;5095175;28;19920;-84
2023/06/03 02:10:08;;;;;;;;;;;;;;;22.62;29.35;98589.19;5095425;28;20402;-84
2023/06/03 02:12:34;;;;;;;;;;;;;;;23.77;27.32;98582.81;5082952;28;20917;-84
2023/06/03 02:15:00;;;;;;;;;;;;;;;24.58;26.27;98581.69;5099626;28;19924;-84
2023/06/03 02:17:27;;;;;;;;;;;;;;;25.30;25.04;98582.84;5094075;28;19927;-84
2023/06/03 02:19:53;;;;;;;;;;;;;;;25.75;24.57;98571.94;5093830;28;19920;-84
2023/06/03 02:22:20;;;;;;;;;;;;;;;25.85;23.88;98587.00;5093997;28;19924;-84
2023/06/03 02:24:47;;;;;;;;;;;;;;;25.91;23.70;98585.25;5093561;28;19920;-83
2023/06/03 02:27:15;;;;;;;;;;;;;;;25.90;23.45;98597.75;5093712;28;20014;-83
2023/06/03 02:29:42;;;;;;;;;;;;;;;25.96;22.85;98596.81;5091557;28;19968;-84
2023/06/03 02:32:08;;;;;;;;;;;;;;;25.93;23.57;98596.88;5094931;28;20380;-84
2023/06/03 02:34:34;;;;;;;;;;;;;;;25.72;23.65;98608.59;5097825;28;19931;-84
2023/06/03 02:37:01;;;;;;;;;;;;;;;25.69;23.36;98601.00;5098344;28;19916;-84
2023/06/03 02:39:27;;;;;;;;;;;;;;;25.50;23.30;98605.41;5115344;28;19915;-84
2023/06/03 02:41:53;;;;;;;;;;;;;;;25.40;24.12;98609.97;5097945;28;19927;-84
2023/06/03 02:44:19;;;;;;;;;;;;;;;25.26;24.41;98604.59;5084730;28;19924;-84
2023/06/03 02:46:45;;;;;;;;;;;;;;;25.48;24.09;98604.25;5086054;28;19966;-84
2023/06/03 02:49:12;;;;;;;;;;;;;;;25.35;23.96;98606.84;5093875;28;19916;-84
2023/06/03 02:51:41;;;;;;;;;;;;;;;25.62;24.11;98604.75;5076949;28;19920;-84
2023/06/03 02:54:07;;;;;;;;;;;;;;;25.65;23.59;98603.09;5101538;28;19920;-84
2023/06/03 02:56:33;;;;;;;;;;;;;;;25.52;24.05;98605.75;5103067;28;19972;-84
2023/06/03 02:59:00;;;;;;;;;;;;;;;25.75;23.93;98607.72;5107687;28;20481;-84
2023/06/03 03:01:27;;;;;;;;;;;;;;;25.77;23.78;98606.06;5108815;28;19980;-84
2023/06/03 03:03:52;;;;;;;;;;;;;;;25.86;23.42;98611.09;5089478;28;19924;-84
2023/06/03 03:06:19;;;;;;;;;;;;;;;25.89;23.22;98604.59;5114607;28;20409;-84
2023/06/03 03:08:48;;;;;;;;;;;;;;;25.92;23.18;98620.63;5099568;28;19920;-84
2023/06/03 03:11:14;;;;;;;;;;;;;;;25.73;23.85;98621.41;5091534;28;19920;-84
2023/06/03 03:13:41;;;;;;;;;;;;;;;25.68;23.61;98630.34;5076406;28;19924;-84
2023/06/03 03:16:08;;;;;;;;;;;;;;;25.66;23.88;98619.53;5080307;28;19985;-84
2023/06/03 03:18:34;;;;;;;;;;;;;;;25.67;23.73;98617.53;5073792;28;19921;-84
2023/06/03 03:21:00;;;;;;;;;;;;;;;25.84;23.44;98624.78;5074288;28;20368;-84
2023/06/03 03:23:27;;;;;;;;;;;;;;;25.89;23.28;98629.94;5073264;28;19928;-84
2023/06/03 03:25:53;;;;;;;;;;;;;;;25.95;23.86;98631.03;5077783;28;19928;-84
2023/06/03 03:28:19;;;;;;;;;;;;;;;25.91;23.99;98633.88;5076939;28;19971;-84
2023/06/03 03:30:46;;;;;;;;;;;;;;;26.05;24.29;98641.25;5069319;28;19921;-84
2023/06/03 03:33:15;;;;;;;;;;;;;;;26.52;24.51;98648.28;5074500;28;20318;-84
2023/06/03 03:35:43;;;;;;;;;;;;;;;27.11;24.15;98634.00;5080714;28;20331;-84
2023/06/03 03:38:09;;;;;;;;;;;;;;;27.55;24.10;98642.94;5068285;28;19921;-84
2023/06/03 03:40:36;;;;;;;;;;;;;;;27.66;25.04;98638.59;5067161;28;19931;-83
2023/06/03 03:43:05;;;;;;;;;;;;;;;27.77;25.35;98647.53;5082553;28;20019;-84
2023/06/03 03:45:35;;;;;;;;;;;;;;;27.94;25.03;98653.94;5074562;28;19943;-83
2023/06/03 03:48:02;;;;;;;;;;;;;;;27.90;25.00;98648.41;5070985;28;19932;-83
2023/06/03 03:50:48;;;;;;;;;;;;;;;27.78;25.06;98649.16;5071333;28;19956;-83
2023/06/03 03:53:18;;;;;;;;;;;;;;;27.79;24.69;98650.75;5071607;28;19943;-84
2023/06/03 03:55:47;;;;;;;;;;;;;;;27.88;25.45;98656.53;5074344;28;19920;-86
2023/06/03 03:58:23;;;;;;;;;;;;;;;28.24;24.91;98652.72;5074979;28;20391;-84
2023/06/03 04:00:51;;;;;;;;;;;;;;;28.57;25.21;98643.59;5066587;28;19973;-83
2023/06/03 04:03:17;;;;;;;;;;;;;;;28.69;24.73;98656.16;5065752;28;19931;-84
2023/06/03 04:05:44;;;;;;;;;;;;;;;28.84;24.61;98654.47;5069213;28;19917;-86
2023/06/03 04:08:15;;;;;;;;;;;;;;;28.78;23.65;98661.16;5072919;28;20339;-86
2023/06/03 04:10:41;;;;;;;;;;;;;;;28.62;24.15;98659.22;5064978;28;19921;-83
2023/06/03 04:13:09;;;;;;;;;;;;;;;28.60;24.19;98656.03;5074700;28;19962;-84
2023/06/03 04:15:35;;;;;;;;;;;;;;;28.78;24.49;98666.81;5095293;28;19924;-84
2023/06/03 04:18:01;;;;;;;;;;;;;;;28.72;24.30;98664.53;5093112;28;19920;-84
2023/06/03 04:20:41;;;;;;;;;;;;;;;28.73;24.66;98659.66;5092825;28;20003;-85
2023/06/03 04:23:12;;;;;;;;;;;;;;;28.84;24.22;98665.78;5085796;28;19920;-85
2023/06/03 04:25:40;;;;;;;;;;;;;;;28.90;24.44;98669.63;5071191;28;19916;-84
2023/06/03 04:28:06;;;;;;;;;;;;;;;28.92;24.37;98669.94;5095025;28;19920;-85
2023/06/03 04:30:33;;;;;;;;;;;;;;;28.79;25.29;98666.34;5092890;28;20378;-87
2023/06/03 04:32:59;;;;;;;;;;;;;;;28.89;24.72;98668.03;5095939;28;19920;-87
2023/06/03 04:35:28;;;;;;;;;;;;;;;28.68;25.71;98666.66;5095152;28;20518;-85
2023/06/03 04:37:54;;;;;;;;;;;;;;;28.88;25.04;98672.09;5095557;28;20448;-83
2023/06/03 04:40:20;;;;;;;;;;;;;;;28.84;25.18;98673.47;5081763;28;19936;-83
2023/06/03 04:42:47;;;;;;;;;;;;;;;28.70;24.92;98683.19;5092306;28;20414;-85
2023/06/03 04:45:14;;;;;;;;;;;;;;;28.69;25.18;98679.56;5094020;28;19943;-84
2023/06/03 04:47:43;;;;;;;;;;;;;;;28.67;25.42;98682.06;5091256;28;19954;-84
2023/06/03 04:50:09;;;;;;;;;;;;;;;28.86;25.18;98674.59;5086904;28;20296;-83
2023/06/03 04:52:36;;;;;;;;;;;;;;;28.71;26.11;98685.56;5095047;28;20455;-83
2023/06/03 04:55:02;;;;;;;;;;;;;;;28.76;25.80;98687.03;5090637;28;19924;-82
2023/06/03 04:57:28;;;;;;;;;;;;;;;29.21;25.82;98689.66;5088609;28;19942;-86
2023/06/03 04:59:54;;;;;;;;;;;;;;;28.41;26.29;98683.22;5090199;28;20286;-85
2023/06/03 05:02:23;;;;;;;;;;;;;;;27.40;27.41;98690.47;5089914;28;19931;-85
2023/06/03 05:04:50;;;;;;;;;;;;;;;27.20;28.05;98695.41;5086463;28;19927;-86
2023/06/03 05:07:16;;;;;;;;;;;;;;;26.94;28.44;98696.44;5104638;28;19927;-86
2023/06/03 05:09:42;;;;;;;;;;;;;;;26.64;28.63;98703.13;5092749;28;19920;-85
2023/06/03 05:12:09;;;;;;;;;;;;;;;27.08;27.51;98698.91;5091389;28;19920;-84
2023/06/03 05:14:35;;;;;;;;;;;;;;;26.88;27.76;98699.00;5089838;28;20015;-84
2023/06/03 05:17:01;;;;;;;;;;;;;;;25.74;29.90;98698.97;5093035;28;19974;-85
2023/06/03 05:19:27;;;;;;;;;;;;;;;26.13;29.05;98701.81;5066829;28;20355;-86
2023/06/03 05:21:53;;;;;;;;;;;;;;;27.77;27.70;98697.56;5092610;28;19959;-85
2023/06/03 05:24:19;;;;;;;;;;;;;;;28.88;25.93;98694.72;5089477;28;20302;-85
2023/06/03 05:26:45;;;;;;;;;;;;;;;28.70;25.63;98702.97;5088516;28;19920;-86
2023/06/03 05:29:11;;;;;;;;;;;;;;;28.29;25.58;98700.94;5087680;28;19928;-85
2023/06/03 05:31:38;;;;;;;;;;;;;;;26.61;27.74;98701.97;5090512;28;19920;-84
2023/06/03 05:34:04;;;;;;;;;;;;;;;27.60;26.75;98704.47;5092885;28;19949;-85
2023/06/03 05:36:30;;;;;;;;;;;;;;;27.94;25.94;98696.28;5087256;28;19920;-86
2023/06/03 05:38:56;;;;;;;;;;;;;;;26.28;28.43;98705.16;5088386;28;19921;-86
2023/06/03 05:41:22;;;;;;;;;;;;;;;25.81;29.25;98710.09;5095659;28;19927;-85
2023/06/03 05:43:48;;;;;;;;;;;;;;;26.30;28.30;98697.81;5092501;28;19924;-86
2023/06/03 05:46:14;;;;;;;;;;;;;;;26.65;27.36;98705.50;5087013;28;20368;-86
2023/06/03 05:48:40;;;;;;;;;;;;;;;27.32;27.04;98717.25;5091006;28;20291;-84
2023/06/03 05:51:06;;;;;;;;;;;;;;;27.50;26.17;98708.34;5103251;28;19927;-84
2023/06/03 05:53:32;;;;;;;;;;;;;;;27.60;25.62;98707.28;5095536;28;19920;-85
2023/06/03 05:55:58;;;;;;;;;;;;;;;26.73;25.72;98714.59;5090879;28;19920;-87
2023/06/03 05:58:24;;;;;;;;;;;;;;;27.73;24.92;98711.75;5104161;28;19932;-86
2023/06/03 06:00:52;;;;;;;;;;;;;;;28.47;25.75;98712.50;5098427;28;20363;-85
2023/06/03 06:03:18;;;;;;;;;;;;;;;27.68;26.30;98705.88;5105737;28;20371;-87
2023/06/03 06:05:45;;;;;;;;;;;;;;;26.85;26.21;98713.16;5097176;28;19970;-86
2023/06/03 06:08:11;;;;;;;;;;;;;;;26.48;25.49;98709.53;5096642;28;19947;-85
2023/06/03 06:10:37;;;;;;;;;;;;;;;26.03;26.45;98711.25;5096186;28;19967;-85
2023/06/03 06:13:03;;;;;;;;;;;;;;;26.15;26.43;98716.25;5111536;28;20335;-85
2023/06/03 06:15:29;;;;;;;;;;;;;;;27.98;24.99;98711.09;5096115;28;19926;-86
2023/06/03 06:17:55;;;;;;;;;;;;;;;26.81;25.72;98718.09;5098809;28;19924;-87
2023/06/03 06:20:21;;;;;;;;;;;;;;;27.49;24.58;98718.88;5097721;28;20423;-88
2023/06/03 06:22:48;;;;;;;;;;;;;;;28.15;23.59;98720.31;5106882;28;20391;-86
2023/06/03 06:25:14;;;;;;;;;;;;;;;28.80;23.07;98724.44;5097612;28;20317;-86
2023/06/03 06:27:41;;;;;;;;;;;;;;;29.79;22.52;98718.41;5094139;28;19916;-86
2023/06/03 06:30:07;;;;;;;;;;;;;;;28.63;23.42;98729.44;5102530;28;19926;-85
2023/06/03 06:32:39;;;;;;;;;;;;;;;26.56;25.68;98733.47;5103150;28;19920;-87
2023/06/03 06:35:05;;;;;;;;;;;;;;;27.75;25.62;98731.09;5084550;28;20308;-86
2023/06/03 06:37:32;;;;;;;;;;;;;;;28.57;22.86;98728.34;5093585;28;20367;-88
2023/06/03 06:39:59;;;;;;;;;;;;;;;28.93;22.91;98735.78;5100707;28;19920;-86
2023/06/03 06:42:28;;;;;;;;;;;;;;;27.21;24.56;98725.97;5097280;28;19920;-88
2023/06/03 06:44:54;;;;;;;;;;;;;;;28.04;24.39;98729.09;5077825;28;19924;-87
2023/06/03 06:47:21;;;;;;;;;;;;;;;27.91;23.73;98726.19;5103151;28;19927;-88
2023/06/03 06:49:52;;;;;;;;;;;;;;;26.50;25.27;98729.59;5096286;28;19916;-88
2023/06/03 06:52:22;;;;;;;;;;;;;;;27.32;24.32;98723.69;5077528;28;19920;-88
2023/06/03 06:54:49;;;;;;;;;;;;;;;28.29;23.41;98728.38;5112774;28;19920;-88
2023/06/03 06:57:21;;;;;;;;;;;;;;;28.22;22.80;98731.41;5095516;28;19920;-87
2023/06/03 06:59:48;;;;;;;;;;;;;;;28.65;22.58;98734.63;5078584;28;19965;-87
2023/06/03 07:02:14;;;;;;;;;;;;;;;28.71;22.08;98729.97;5094847;28;19920;-86
2023/06/03 07:04:40;;;;;;;;;;;;;;;27.75;22.99;98733.91;5098016;28;19952;-87
2023/06/03 07:07:06;;;;;;;;;;;;;;;27.07;24.76;98728.34;5095834;28;19966;-88
2023/06/03 07:09:35;;;;;;;;;;;;;;;27.80;23.92;98734.16;5085629;28;19961;-87
2023/06/03 07:12:01;;;;;;;;;;;;;;;28.96;22.80;98730.03;5095321;28;19916;-87
2023/06/03 07:14:30;;;;;;;;;;;;;;;28.24;22.97;98735.38;5111232;28;19976;-87
2023/06/03 07:16:56;;;;;;;;;;;;;;;26.71;24.24;98748.06;5103806;28;19933;-88
2023/06/03 07:19:23;;;;;;;;;;;;;;;26.26;25.58;98747.78;5080205;28;19926;-87
2023/06/03 07:21:51;;;;;;;;;;;;;;;27.80;23.54;98741.81;5101105;28;19924;-86
2023/06/03 07:24:17;;;;;;;;;;;;;;;28.12;22.75;98746.63;5076185;28;20391;-86
2023/06/03 07:26:46;;;;;;;;;;;;;;;28.32;23.23;98745.25;5102695;28;20328;-86
2023/06/03 07:29:13;;;;;;;;;;;;;;;29.20;24.19;98739.75;5091479;28;19927;-86
2023/06/03 07:31:40;;;;;;;;;;;;;;;29.49;22.47;98750.94;5094841;28;19973;-86
2023/06/03 07:34:07;;;;;;;;;;;;;;;29.27;21.14;98758.53;5093730;28;19927;-87
2023/06/03 07:36:34;;;;;;;;;;;;;;;29.21;21.01;98752.66;5101842;28;19960;-87
2023/06/03 07:39:05;;;;;;;;;;;;;;;29.06;21.35;98757.16;5095030;28;19924;-86
2023/06/03 07:41:45;;;;;;;;;;;;;;;28.42;21.70;98752.63;5095768;28;20046;-86
2023/06/03 07:44:12;;;;;;;;;;;;;;;28.76;21.19;98752.03;5102974;28;19924;-87
2023/06/03 07:46:40;;;;;;;;;;;;;;;28.94;22.11;98746.63;5099314;28;19920;-85
2023/06/03 07:49:07;;;;;;;;;;;;;;;27.67;23.31;98753.06;5102304;28;19920;-86
2023/06/03 07:51:33;;;;;;;;;;;;;;;28.19;22.69;98761.34;5097280;28;20434;-88
2023/06/03 07:53:59;;;;;;;;;;;;;;;27.98;22.83;98759.09;5108843;28;19920;-87
2023/06/03 07:56:27;;;;;;;;;;;;;;;28.34;21.85;98756.09;5101574;28;20412;-87
2023/06/03 07:58:54;;;;;;;;;;;;;;;27.14;23.78;98764.81;5101588;28;19920;-88
2023/06/03 08:01:23;;;;;;;;;;;;;;;28.60;23.07;98755.75;5095749;28;20325;-87
2023/06/03 08:03:50;;;;;;;;;;;;;;;28.28;22.49;98760.72;5093106;28;19959;-88
2023/06/03 08:06:16;;;;;;;;;;;;;;;25.99;25.66;98758.38;5096719;28;19932;-88
2023/06/03 08:08:43;;;;;;;;;;;;;;;24.81;27.49;98769.09;5097355;28;19927;-89
2023/06/03 08:11:10;;;;;;;;;;;;;;;27.18;24.74;98759.88;5098853;28;19920;-87
2023/06/03 08:13:36;;;;;;;;;;;;;;;28.78;21.22;98760.84;5095421;28;19924;-87
2023/06/03 08:16:05;;;;;;;;;;;;;;;28.77;21.99;98764.13;5095242;28;20225;-90
2023/06/03 08:18:40;;;;;;;;;;;;;;;29.42;21.49;98760.47;5090271;28;19920;-87
2023/06/03 08:21:06;;;;;;;;;;;;;;;30.26;18.81;98761.59;5090739;28;19989;-87
2023/06/03 08:23:33;;;;;;;;;;;;;;;29.25;20.92;98759.00;5099440;28;19919;-88
2023/06/03 08:26:00;;;;;;;;;;;;;;;27.60;21.14;98767.34;5093582;28;19916;-86
2023/06/03 08:28:26;;;;;;;;;;;;;;;27.96;22.44;98764.38;5094973;28;20732;-87
2023/06/03 08:30:53;;;;;;;;;;;;;;;28.86;21.65;98775.56;5092475;28;19928;-88
2023/06/03 08:33:19;;;;;;;;;;;;;;;27.67;22.73;98764.34;5091734;28;19973;-89
2023/06/03 08:35:45;;;;;;;;;;;;;;;28.52;23.23;98768.44;5085273;28;20371;-87
2023/06/03 08:38:12;;;;;;;;;;;;;;;29.58;20.07;98767.22;5105660;28;19942;-87
2023/06/03 08:40:40;;;;;;;;;;;;;;;29.97;20.23;98770.31;5097436;28;19951;-87
2023/06/03 08:43:06;;;;;;;;;;;;;;;30.38;17.89;98762.84;5089688;28;20383;-85
2023/06/03 08:45:40;;;;;;;;;;;;;;;30.56;17.61;98768.63;5111265;28;20371;-85
2023/06/03 08:48:09;;;;;;;;;;;;;;;30.80;20.15;98766.09;5083703;28;20291;-85
2023/06/03 08:50:36;;;;;;;;;;;;;;;29.96;18.73;98767.97;5092499;28;19928;-86
2023/06/03 08:53:08;;;;;;;;;;;;;;;27.58;22.66;98778.28;5106199;28;19926;-88
2023/06/03 08:55:36;;;;;;;;;;;;;;;26.12;23.08;98781.06;5091124;28;20435;-88
2023/06/03 08:58:12;;;;;;;;;;;;;;;26.21;23.52;98765.19;5074474;28;19920;-86
2023/06/03 09:00:38;;;;;;;;;;;;;;;25.97;23.20;98774.88;5091462;28;20021;-84
2023/06/03 09:03:05;;;;;;;;;;;;;;;25.34;23.46;98774.72;5101012;28;19920;-87
2023/06/03 09:05:35;;;;;;;;;;;;;;;25.32;24.07;98782.00;5101420;28;19920;-85
2023/06/03 09:08:01;;;;;;;;;;;;;;;27.34;22.48;98768.34;5079211;28;19963;-85
2023/06/03 09:10:27;;;;;;;;;;;;;;;25.14;23.63;98782.28;5103984;28;20687;-85
2023/06/03 09:12:56;;;;;;;;;;;;;;;26.59;22.98;98771.25;5097802;28;20046;-86
2023/06/03 09:15:22;;;;;;;;;;;;;;;25.34;22.55;98776.75;5099594;28;20003;-86
2023/06/03 09:17:48;;;;;;;;;;;;;;;24.70;22.74;98780.47;5097042;28;19920;-85
2023/06/03 09:20:14;;;;;;;;;;;;;;;26.15;21.89;98772.56;5096494;28;20383;-88
2023/06/03 09:22:42;;;;;;;;;;;;;;;25.70;22.90;98769.34;5095861;28;20337;-87
2023/06/03 09:25:08;;;;;;;;;;;;;;;24.93;22.63;98768.53;5098756;28;19927;-89
2023/06/03 09:27:34;;;;;;;;;;;;;;;25.73;22.46;98770.50;5095613;28;20428;-89
2023/06/03 09:30:04;;;;;;;;;;;;;;;25.57;23.24;98782.44;5098118;28;19935;-87
2023/06/03 09:32:30;;;;;;;;;;;;;;;24.23;23.71;98766.63;5095863;28;19928;-87
2023/06/03 09:34:56;;;;;;;;;;;;;;;24.78;23.31;98769.97;5100905;28;19920;-86
2023/06/03 09:37:22;;;;;;;;;;;;;;;23.73;23.88;98764.34;5095429;28;19927;-87
2023/06/03 09:39:48;;;;;;;;;;;;;;;24.55;23.43;98761.44;5096406;28;20007;-87
2023/06/03 09:42:15;;;;;;;;;;;;;;;25.81;22.08;98757.91;5094641;28;19920;-88
2023/06/03 09:44:49;;;;;;;;;;;;;;;25.75;23.03;98757.59;5095748;28;19920;-88
2023/06/03 09:47:16;;;;;;;;;;;;;;;23.68;24.85;98769.59;5096073;28;19932;-88
2023/06/03 09:50:03;;;;;;;;;;;;;;;25.79;22.36;98758.31;5095696;28;19968;-87
2023/06/03 09:52:32;;;;;;;;;;;;;;;26.60;20.03;98753.94;5094003;28;19920;-86
2023/06/03 09:55:02;;;;;;;;;;;;;;;27.05;21.84;98747.72;5096224;28;20003;-86
2023/06/03 09:57:29;;;;;;;;;;;;;;;28.26;19.73;98738.56;5091373;28;19924;-87
2023/06/03 10:00:09;;;;;;;;;;;;;;;27.14;21.06;98750.72;5094879;28;19916;-87
2023/06/03 10:02:37;;;;;;;;;;;;;;;25.27;22.21;98749.56;5101490;28;19923;-88
2023/06/03 10:05:03;;;;;;;;;;;;;;;24.95;23.71;98754.84;5095873;28;19920;-87
2023/06/03 10:07:29;;;;;;;;;;;;;;;25.20;22.69;98752.47;5090993;28;20395;-86
2023/06/03 10:10:13;;;;;;;;;;;;;;;26.16;24.02;98746.00;5097236;28;19923;-86
2023/06/03 10:12:39;;;;;;;;;;;;;;;25.31;22.87;98743.88;5098674;28;19932;-85
2023/06/03 10:15:05;;;;;;;;;;;;;;;25.78;22.42;98756.75;5096436;28;19928;-86
2023/06/03 10:17:31;;;;;;;;;;;;;;;26.05;22.14;98746.16;5095020;28;20689;-87
2023/06/03 10:19:57;;;;;;;;;;;;;;;25.86;22.86;98737.69;5093884;28;20373;-89
2023/06/03 10:22:25;;;;;;;;;;;;;;;26.43;21.77;98738.19;5092953;28;19989;-88
2023/06/03 10:24:54;;;;;;;;;;;;;;;25.45;21.53;98746.47;5093816;28;20439;-87
2023/06/03 10:27:20;;;;;;;;;;;;;;;24.53;23.13;98739.38;5094574;28;20261;-86
2023/06/03 10:29:47;;;;;;;;;;;;;;;24.46;22.81;98736.66;5094985;28;19916;-87
2023/06/03 10:32:14;;;;;;;;;;;;;;;25.53;23.14;98730.28;5093697;28;20383;-86
2023/06/03 10:34:41;;;;;;;;;;;;;;;25.60;22.33;98735.78;5098496;28;19927;-87
2023/06/03 10:37:13;;;;;;;;;;;;;;;25.81;22.94;98732.59;5095150;28;20298;-87
2023/06/03 10:39:40;;;;;;;;;;;;;;;25.72;22.18;98718.28;5076093;28;20337;-86
2023/06/03 10:42:07;;;;;;;;;;;;;;;25.26;22.35;98733.91;5093692;28;19932;-87
2023/06/03 10:44:33;;;;;;;;;;;;;;;25.98;21.93;98723.00;5099670;28;19928;-87
2023/06/03 10:47:01;;;;;;;;;;;;;;;26.35;22.25;98716.25;5093891;28;19924;-86
2023/06/03 10:49:38;;;;;;;;;;;;;;;26.84;20.97;98722.84;5098558;28;19927;-87
2023/06/03 10:52:16;;;;;;;;;;;;;;;27.81;21.56;98713.16;5097276;28;19915;-86
2023/06/03 10:54:54;;;;;;;;;;;;;;;29.16;17.62;98713.59;5079739;28;19924;-86
2023/06/03 10:57:24;;;;;;;;;;;;;;;26.26;20.25;98722.47;5101177;28;19920;-86
2023/06/03 10:59:51;;;;;;;;;;;;;;;28.83;18.71;98715.06;5078442;28;19924;-86
2023/06/03 11:02:17;;;;;;;;;;;;;;;27.71;20.16;98702.16;5080717;28;19991;-86
2023/06/03 11:04:43;;;;;;;;;;;;;;;26.93;20.09;98709.75;5115245;28;19923;-86
2023/06/03 11:07:28;;;;;;;;;;;;;;;27.08;20.67;98710.97;5115562;28;20006;-87
2023/06/03 11:09:54;;;;;;;;;;;;;;;29.36;20.44;98702.06;5102597;28;19929;-85
2023/06/03 11:12:20;;;;;;;;;;;;;;;31.03;20.03;98697.53;5094981;28;19916;-86
2023/06/03 11:14:48;;;;;;;;;;;;;;;30.54;17.73;98698.22;5093610;28;19920;-86
2023/06/03 11:17:15;;;;;;;;;;;;;;;29.36;19.44;98705.69;5101805;28;19924;-87
2023/06/03 11:19:44;;;;;;;;;;;;;;;26.43;20.44;98700.78;5102251;28;19952;-86
2023/06/03 11:22:28;;;;;;;;;;;;;;;26.37;20.77;98706.13;5097137;28;19920;-87
2023/06/03 11:25:01;;;;;;;;;;;;;;;28.79;20.02;98707.94;5093570;28;19973;-86
2023/06/03 11:27:28;;;;;;;;;;;;;;;29.64;16.98;98709.56;5095442;28;19965;-86
2023/06/03 11:29:56;;;;;;;;;;;;;;;27.42;20.29;98710.59;5092393;28;19920;-88
2023/06/03 11:32:26;;;;;;;;;;;;;;;29.82;19.00;98706.16;5085567;28;19924;-87
2023/06/03 11:34:59;;;;;;;;;;;;;;;26.85;20.96;98704.69;5103467;28;19993;-88
2023/06/03 11:37:43;;;;;;;;;;;;;;;28.80;20.37;98704.66;5096841;28;19965;-86
2023/06/03 11:40:15;;;;;;;;;;;;;;;28.41;19.71;98699.38;5097779;28;19920;-85
2023/06/03 11:42:46;;;;;;;;;;;;;;;28.45;18.92;98700.09;5094296;28;19924;-86
2023/06/03 11:45:18;;;;;;;;;;;;;;;28.53;19.08;98704.28;5096508;28;19924;-86
2023/06/03 11:47:57;;;;;;;;;;;;;;;28.35;20.39;98707.63;5100229;28;19932;-85
2023/06/03 11:50:25;;;;;;;;;;;;;;;26.45;21.24;98704.75;5075749;28;20436;-86
2023/06/03 11:52:51;;;;;;;;;;;;;;;27.73;20.86;98702.50;5092520;28;19926;-84
2023/06/03 11:55:27;;;;;;;;;;;;;;;26.54;20.63;98698.53;5075363;28;20421;-85
2023/06/03 11:58:00;;;;;;;;;;;;;;;26.67;20.75;98691.81;5089852;28;19927;-85
2023/06/03 12:00:26;;;;;;;;;;;;;;;28.15;18.79;98697.72;5091994;28;19917;-85
2023/06/03 12:02:53;;;;;;;;;;;;;;;27.60;19.49;98696.81;5078306;28;19926;-87
2023/06/03 12:05:20;;;;;;;;;;;;;;;27.72;19.01;98686.81;5095024;28;19955;-86
2023/06/03 12:07:59;;;;;;;;;;;;;;;28.33;19.28;98683.91;5077030;28;19928;-83
2023/06/03 12:10:25;;;;;;;;;;;;;;;27.03;20.56;98690.97;5074593;28;19928;-85
2023/06/03 12:12:52;;;;;;;;;;;;;;;27.28;20.93;98683.47;5092099;28;20265;-84
2023/06/03 12:15:19;;;;;;;;;;;;;;;27.35;19.57;98691.00;5095868;28;19924;-86
2023/06/03 12:17:45;;;;;;;;;;;;;;;26.39;20.07;98678.34;5094447;28;19927;-84
2023/06/03 12:20:24;;;;;;;;;;;;;;;27.75;19.56;98671.81;5071631;28;19928;-84
2023/06/03 12:23:20;;;;;;;;;;;;;;;26.92;20.23;98674.34;5073660;28;20062;-86
2023/06/03 12:25:54;;;;;;;;;;;;;;;26.23;21.49;98678.31;5075120;28;19919;-85
2023/06/03 12:28:24;;;;;;;;;;;;;;;26.85;19.48;98679.34;5086570;28;19920;-86
2023/06/03 12:30:50;;;;;;;;;;;;;;;27.01;19.55;98685.78;5085499;28;19942;-84
2023/06/03 12:33:18;;;;;;;;;;;;;;;27.74;18.74;98675.88;5094566;28;19920;-86
2023/06/03 12:35:54;;;;;;;;;;;;;;;28.58;17.40;98670.59;5092143;28;19928;-86
2023/06/03 12:38:26;;;;;;;;;;;;;;;28.52;19.54;98666.75;5085731;28;20399;-88
2023/06/03 12:41:06;;;;;;;;;;;;;;;26.84;19.63;98670.09;5073124;28;19967;-87
2023/06/03 12:43:32;;;;;;;;;;;;;;;26.00;20.85;98665.06;5078291;28;19919;-88
2023/06/03 12:46:24;;;;;;;;;;;;;;;27.61;20.46;98660.94;5099673;28;20341;-90
2023/06/03 12:48:52;;;;;;;;;;;;;;;28.24;19.92;98666.81;5089461;28;19926;-87
2023/06/03 12:51:23;;;;;;;;;;;;;;;27.89;19.08;98658.09;5104408;28;19962;-90
2023/06/03 12:53:49;;;;;;;;;;;;;;;28.64;18.37;98654.69;5103792;28;19963;-88